Terminal Aerodrome Forecast
Issued by NWS Twin Cities, MN

Home | Current Version | Previous Version | Graphics & Text | Print | Product List | Glossary On
Versions: 1 2 3 4 5 6 7 8 9 10 11 12 13 14 15 16 17 18 19 20 21 22 23 24 25 26 27 28 29 30 31 32 33
000
FTUS43 KMPX 281720
TAFMSP
TAF
KMSP 281720Z 2818/2924 20005KT P6SM BKN029 BKN050
     FM281900 33011KT P6SM -SHRA SCT029 OVC040
      TEMPO 2819/2822 5SM -TSRA BKN029CB OVC040
     FM282200 35008KT P6SM VCSH BKN050
     FM290200 VRB03KT P6SM SCT050
     FM291500 32009G16KT P6SM BKN050 PROB30 2921/2924 5SM -TSRA
      OVC035CB=

USA.gov is the U.S. government's official web portal to all federal, state and local government web resources and services.